Time;durP1;ratioP1;P1;durP2;ratioP2;P2;SDS_P1;SDS_P2;PMS_P1;PMS_P2;Temp;Humidity;BMP_temperature;BMP_pressure;BME280_temperature;BME280_humidity;BME280_pressure;Samples;Min_cycle;Max_cycle;Signal;HPM_P1;HPM_P2
2023/11/08 00:02:22;;;;;;;12.32;5.68;;;;;;;4.09;66.94;100642.38;4999880;28;20038;-72
2023/11/08 00:04:47;;;;;;;13.93;5.30;;;;;;;3.97;67.98;100653.78;4995976;28;20504;-72
2023/11/08 00:07:13;;;;;;;9.93;5.53;;;;;;;4.43;66.36;100641.78;4995675;28;20085;-73
2023/11/08 00:09:40;;;;;;;10.43;5.75;;;;;;;4.85;65.04;100641.84;5003136;28;20041;-70
2023/11/08 00:12:06;;;;;;;11.25;6.40;;;;;;;4.59;65.68;100642.38;4995771;28;20037;-70
2023/11/08 00:14:31;;;;;;;8.52;6.07;;;;;;;4.55;66.17;100656.25;5001460;28;20091;-70
2023/11/08 00:16:57;;;;;;;10.82;6.45;;;;;;;4.12;67.47;100664.75;5000728;28;20129;-70
2023/11/08 00:19:23;;;;;;;11.55;6.65;;;;;;;4.57;66.17;100646.72;4999022;28;20072;-70
2023/11/08 00:21:49;;;;;;;10.38;5.72;;;;;;;4.67;66.05;100647.41;4995215;28;20030;-69
2023/11/08 00:24:18;;;;;;;9.57;6.50;;;;;;;4.58;66.07;100656.19;5001080;28;20037;-70
2023/11/08 00:26:44;;;;;;;8.95;5.80;;;;;;;4.53;66.33;100661.44;4984415;28;20705;-71
2023/11/08 00:29:10;;;;;;;9.50;5.45;;;;;;;4.39;66.84;100646.19;5004716;28;20048;-70
2023/11/08 00:31:35;;;;;;;12.55;6.25;;;;;;;4.80;65.06;100652.31;4999427;28;20038;-71
2023/11/08 00:34:01;;;;;;;9.55;6.00;;;;;;;4.49;66.02;100644.28;4995696;28;20051;-71
2023/11/08 00:36:26;;;;;;;10.57;6.25;;;;;;;4.77;64.89;100647.19;4990324;28;20030;-70
2023/11/08 00:38:52;;;;;;;8.93;5.75;;;;;;;4.58;65.31;100645.84;4997988;28;20052;-71
2023/11/08 00:41:17;;;;;;;10.82;5.47;;;;;;;4.52;66.39;100645.94;5002374;28;20037;-70
2023/11/08 00:43:43;;;;;;;10.75;6.82;;;;;;;4.70;65.25;100650.81;4999377;28;20045;-70
2023/11/08 00:46:09;;;;;;;13.80;6.55;;;;;;;4.43;66.30;100652.13;5001377;28;20625;-71
2023/11/08 00:48:36;;;;;;;11.93;6.22;;;;;;;4.58;65.81;100643.25;5008460;28;20821;-70
2023/11/08 00:51:02;;;;;;;8.50;6.55;;;;;;;4.54;65.91;100639.00;5000681;28;20381;-70
2023/11/08 00:53:30;;;;;;;9.88;5.70;;;;;;;3.97;66.89;100651.19;5009789;28;20045;-69
2023/11/08 00:55:56;;;;;;;10.68;5.00;;;;;;;4.10;67.28;100640.66;5006728;28;20551;-69
2023/11/08 00:58:21;;;;;;;9.60;5.25;;;;;;;4.52;65.09;100638.19;5004452;28;20090;-70
2023/11/08 01:00:49;;;;;;;9.30;5.55;;;;;;;3.98;66.63;100647.75;5001368;28;20088;-70
2023/11/08 01:03:16;;;;;;;11.68;5.85;;;;;;;4.58;65.54;100640.66;5002337;28;20037;-70
2023/11/08 01:05:42;;;;;;;9.20;5.70;;;;;;;4.55;64.85;100651.94;5000718;28;20037;-67
2023/11/08 01:08:07;;;;;;;8.65;4.38;;;;;;;4.23;65.83;100649.94;5003202;28;20045;-70
2023/11/08 01:10:33;;;;;;;8.38;5.60;;;;;;;3.95;66.85;100652.94;5003798;28;20579;-69
2023/11/08 01:12:58;;;;;;;7.47;5.28;;;;;;;3.89;66.93;100665.97;5000963;28;20049;-74
2023/11/08 01:15:24;;;;;;;11.00;5.05;;;;;;;4.00;66.68;100645.97;5002403;28;20531;-66
2023/11/08 01:17:50;;;;;;;8.98;4.93;;;;;;;4.02;66.70;100664.91;4988619;28;20132;-70
2023/11/08 01:20:16;;;;;;;6.97;4.75;;;;;;;4.40;65.60;100657.38;5010585;28;20036;-70
2023/11/08 01:22:44;;;;;;;6.38;4.38;;;;;;;4.00;66.18;100656.31;5003031;28;20583;-72
2023/11/08 01:25:12;;;;;;;8.18;5.25;;;;;;;4.26;66.11;100649.00;5000761;28;20041;-70
2023/11/08 01:27:38;;;;;;;6.38;3.55;;;;;;;4.16;65.92;100659.53;5000945;28;20539;-70
2023/11/08 01:30:04;;;;;;;8.63;4.03;;;;;;;4.22;65.29;100653.38;5005998;28;20045;-70
2023/11/08 01:32:31;;;;;;;7.88;3.33;;;;;;;4.39;65.03;100655.69;5003093;28;20037;-67
2023/11/08 01:35:00;;;;;;;6.25;3.42;;;;;;;4.35;65.20;100660.03;5002376;28;20025;-69
2023/11/08 01:37:26;;;;;;;6.57;3.40;;;;;;;4.20;66.04;100663.75;5018166;28;20048;-70
2023/11/08 01:39:51;;;;;;;7.03;2.58;;;;;;;4.29;65.61;100664.47;4991522;28;20040;-70
2023/11/08 01:42:18;;;;;;;6.25;3.13;;;;;;;4.61;65.15;100666.50;5006579;28;20041;-71
2023/11/08 01:44:44;;;;;;;5.78;2.63;;;;;;;4.25;65.77;100665.41;5010189;28;20030;-70
2023/11/08 01:47:09;;;;;;;5.28;3.38;;;;;;;4.12;66.43;100668.22;4994264;28;20402;-71
2023/11/08 01:49:38;;;;;;;6.25;3.05;;;;;;;4.73;63.88;100663.66;5004334;28;20037;-71
2023/11/08 01:52:04;;;;;;;3.90;2.75;;;;;;;4.63;63.63;100665.59;4998309;28;20037;-72
2023/11/08 01:54:30;;;;;;;10.88;3.53;;;;;;;4.15;65.82;100672.47;5003236;28;20030;-70
2023/11/08 01:56:58;;;;;;;9.77;4.60;;;;;;;4.46;65.13;100677.13;5004774;28;20120;-71
2023/11/08 01:59:25;;;;;;;3.70;1.98;;;;;;;4.15;66.32;100662.97;5004166;28;20041;-71
2023/11/08 02:01:51;;;;;;;3.45;2.88;;;;;;;4.50;65.02;100664.09;4996101;28;20495;-71
2023/11/08 02:04:19;;;;;;;4.43;2.75;;;;;;;4.75;64.36;100669.69;5000850;28;20029;-70
2023/11/08 02:06:44;;;;;;;5.70;3.25;;;;;;;3.99;67.05;100677.88;5000485;28;20428;-71
2023/11/08 02:09:11;;;;;;;5.10;3.25;;;;;;;4.54;65.05;100683.00;4978447;28;20060;-70
2023/11/08 02:11:38;;;;;;;5.68;2.92;;;;;;;4.66;64.68;100682.81;4995119;28;20481;-71
2023/11/08 02:14:05;;;;;;;7.00;2.85;;;;;;;4.20;65.86;100678.41;4996389;28;20544;-70
2023/11/08 02:16:33;;;;;;;6.30;3.50;;;;;;;4.48;64.36;100678.81;5001934;28;20132;-70
2023/11/08 02:18:59;;;;;;;5.70;3.60;;;;;;;4.33;65.01;100679.06;4981160;28;20029;-70
2023/11/08 02:21:24;;;;;;;5.65;3.50;;;;;;;4.27;65.78;100676.59;5005098;28;20572;-72
2023/11/08 02:23:50;;;;;;;4.63;3.00;;;;;;;4.30;65.80;100679.13;5000459;28;20041;-74
2023/11/08 02:26:15;;;;;;;8.38;3.67;;;;;;;4.44;64.91;100679.75;4991308;28;20033;-74
2023/11/08 02:28:43;;;;;;;4.53;3.35;;;;;;;4.57;64.45;100683.81;4990720;28;20057;-75
2023/11/08 02:31:08;;;;;;;3.63;3.17;;;;;;;4.02;66.15;100677.84;5000739;28;20084;-74
2023/11/08 02:33:34;;;;;;;7.75;5.32;;;;;;;4.13;65.72;100682.00;4993566;28;20041;-74
2023/11/08 02:36:03;;;;;;;6.72;4.47;;;;;;;4.21;65.95;100685.31;5005656;28;20164;-74
2023/11/08 02:38:28;;;;;;;5.93;4.15;;;;;;;4.16;66.25;100685.41;5013601;28;20034;-80
2023/11/08 02:40:53;;;;;;;9.25;4.43;;;;;;;4.47;65.57;100686.59;5010650;28;20034;-80
2023/11/08 02:43:19;;;;;;;6.05;3.97;;;;;;;4.77;64.81;100678.28;5012528;28;20069;-80
2023/11/08 02:45:44;;;;;;;8.80;4.95;;;;;;;4.12;66.13;100682.84;5016110;28;20061;-71
2023/11/08 02:48:12;;;;;;;9.75;6.03;;;;;;;4.16;66.94;100679.34;4999503;28;20124;-70
2023/11/08 02:50:39;;;;;;;11.27;6.53;;;;;;;4.42;66.10;100681.50;5002507;28;20581;-71
2023/11/08 02:53:05;;;;;;;9.07;5.90;;;;;;;4.59;65.01;100683.81;4989417;28;20041;-70
2023/11/08 02:55:31;;;;;;;10.27;5.93;;;;;;;4.02;67.58;100684.75;4990475;28;20026;-71
2023/11/08 02:57:58;;;;;;;13.20;6.40;;;;;;;4.51;65.67;100680.47;4981366;28;20041;-69
2023/11/08 03:00:23;;;;;;;9.85;5.82;;;;;;;4.07;66.35;100685.50;5000542;28;20743;-70
2023/11/08 03:02:51;;;;;;;8.27;5.30;;;;;;;4.53;65.61;100691.66;5001208;28;20041;-70
2023/11/08 03:05:21;;;;;;;11.57;6.25;;;;;;;4.59;65.47;100683.81;4989299;28;20112;-69
2023/11/08 03:07:48;;;;;;;11.57;7.20;;;;;;;4.46;65.55;100683.16;5007091;28;20083;-69
2023/11/08 03:10:17;;;;;;;12.57;7.15;;;;;;;4.57;65.24;100683.81;4996521;28;21382;-69
2023/11/08 03:12:51;;;;;;;9.35;6.57;;;;;;;4.48;65.83;100701.25;5002660;28;20099;-70
2023/11/08 03:15:23;;;;;;;13.15;7.50;;;;;;;4.04;67.78;100700.25;4996574;28;20033;-69
2023/11/08 03:17:52;;;;;;;14.55;8.50;;;;;;;3.73;67.63;100690.34;5000637;28;20057;-69
2023/11/08 03:20:19;;;;;;;9.75;6.55;;;;;;;4.13;67.12;100700.94;4996435;28;20460;-69
2023/11/08 03:22:44;;;;;;;11.68;7.15;;;;;;;4.26;66.90;100693.00;5008357;28;20048;-70
2023/11/08 03:25:16;;;;;;;14.43;7.65;;;;;;;4.45;65.73;100690.94;4999267;28;20488;-70
2023/11/08 03:27:43;;;;;;;13.20;7.72;;;;;;;4.02;67.46;100693.34;5007459;28;20727;-70
2023/11/08 03:30:12;;;;;;;16.42;7.78;;;;;;;4.25;66.62;100710.22;4995476;28;20037;-69
2023/11/08 03:32:40;;;;;;;14.65;7.57;;;;;;;4.60;65.77;100714.81;5006847;28;20119;-70
2023/11/08 03:35:07;;;;;;;12.70;6.82;;;;;;;4.85;64.86;100722.13;4996630;28;20037;-70
2023/11/08 03:37:36;;;;;;;13.65;7.05;;;;;;;4.77;65.63;100726.63;5003244;28;20516;-71
2023/11/08 03:40:03;;;;;;;13.02;6.80;;;;;;;4.46;66.54;100708.19;5003387;28;20091;-71
2023/11/08 03:42:29;;;;;;;14.30;7.00;;;;;;;4.63;65.91;100711.31;5010781;28;20171;-72
2023/11/08 03:44:55;;;;;;;12.75;7.53;;;;;;;4.43;66.09;100715.13;5004442;28;20397;-71
2023/11/08 03:47:21;;;;;;;13.98;6.43;;;;;;;4.73;65.52;100702.50;5002230;28;20038;-71
2023/11/08 03:49:46;;;;;;;11.30;7.72;;;;;;;4.43;65.94;100720.31;5002717;28;20199;-70
2023/11/08 03:52:12;;;;;;;13.13;7.22;;;;;;;4.83;64.50;100717.00;4993587;28;20046;-70
2023/11/08 03:54:38;;;;;;;12.70;6.93;;;;;;;4.77;64.44;100714.53;5003180;28;20065;-71
2023/11/08 03:57:03;;;;;;;13.95;7.18;;;;;;;4.62;65.19;100710.47;4995378;28;20047;-70
2023/11/08 03:59:29;;;;;;;14.73;8.23;;;;;;;4.22;66.07;100710.28;5001087;28;20030;-70
2023/11/08 04:01:54;;;;;;;15.93;6.93;;;;;;;4.49;66.12;100705.53;4983454;28;20131;-67
2023/11/08 04:04:19;;;;;;;13.82;7.43;;;;;;;4.14;66.64;100710.44;4996609;28;20037;-68
2023/11/08 04:06:45;;;;;;;10.93;6.93;;;;;;;4.21;66.34;100718.94;5000986;28;20041;-74
2023/11/08 04:09:10;;;;;;;10.20;6.78;;;;;;;4.63;65.02;100716.50;5000269;28;20042;-75
2023/11/08 04:11:36;;;;;;;14.27;6.45;;;;;;;4.31;66.00;100717.91;5006364;28;20516;-64
2023/11/08 04:14:01;;;;;;;10.15;5.88;;;;;;;4.66;64.57;100716.47;4994301;28;20037;-73
2023/11/08 04:16:27;;;;;;;13.57;7.35;;;;;;;4.39;65.70;100713.47;5009937;28;20083;-73
2023/11/08 04:18:52;;;;;;;9.57;6.03;;;;;;;4.38;66.09;100722.09;5000032;28;20049;-73
2023/11/08 04:21:18;;;;;;;8.38;6.43;;;;;;;4.21;66.63;100721.53;4998210;28;21578;-74
2023/11/08 04:23:43;;;;;;;9.20;4.88;;;;;;;4.91;64.82;100719.47;4985935;28;20046;-76
2023/11/08 04:26:09;;;;;;;6.68;4.75;;;;;;;4.74;64.93;100716.31;4997141;28;20065;-74
2023/11/08 04:28:38;;;;;;;8.45;5.45;;;;;;;5.03;64.11;100721.84;4999356;28;20500;-75
2023/11/08 04:31:03;;;;;;;8.57;5.32;;;;;;;4.84;64.34;100715.25;4995516;28;20048;-74
2023/11/08 04:33:29;;;;;;;9.45;4.85;;;;;;;4.83;63.76;100719.59;4979766;28;20041;-74
2023/11/08 04:35:54;;;;;;;9.15;3.80;;;;;;;4.82;64.22;100722.22;4997834;28;20415;-74
2023/11/08 04:38:20;;;;;;;10.85;5.80;;;;;;;4.73;64.61;100722.38;4998580;28;20462;-74
2023/11/08 04:40:45;;;;;;;8.07;4.85;;;;;;;5.00;63.75;100727.06;5007315;28;20136;-74
2023/11/08 04:43:13;;;;;;;8.68;5.45;;;;;;;4.93;64.25;100724.63;4999020;28;20145;-74
2023/11/08 04:45:39;;;;;;;8.80;5.85;;;;;;;4.70;64.74;100737.94;4999696;28;20117;-75
2023/11/08 04:48:04;;;;;;;13.70;6.47;;;;;;;4.49;65.50;100728.81;5003053;28;20088;-74
2023/11/08 04:50:30;;;;;;;13.68;6.43;;;;;;;4.64;65.13;100723.41;5000109;28;20051;-70
2023/11/08 04:52:55;;;;;;;11.70;5.97;;;;;;;4.75;65.08;100726.66;4999701;28;20060;-72
2023/11/08 04:55:21;;;;;;;9.77;6.18;;;;;;;4.68;65.16;100725.06;5001404;28;20550;-68
2023/11/08 04:57:46;;;;;;;13.55;7.32;;;;;;;4.37;65.92;100725.56;5002765;28;20124;-68
2023/11/08 05:00:12;;;;;;;11.27;6.60;;;;;;;4.67;65.43;100720.75;5002065;28;20045;-68
2023/11/08 05:02:38;;;;;;;10.65;6.70;;;;;;;4.64;64.97;100725.97;4999748;28;20587;-67
2023/11/08 05:05:04;;;;;;;10.75;6.07;;;;;;;4.78;64.98;100730.91;4994614;28;20033;-68
2023/11/08 05:07:31;;;;;;;7.97;5.30;;;;;;;4.30;66.06;100739.50;4998722;28;20078;-68
2023/11/08 05:09:56;;;;;;;10.80;6.60;;;;;;;4.40;64.97;100750.53;4998950;28;20042;-72
2023/11/08 05:12:22;;;;;;;11.38;6.75;;;;;;;4.43;65.27;100751.34;4992926;28;22279;-72
2023/11/08 05:14:48;;;;;;;8.75;5.32;;;;;;;4.28;65.70;100745.56;4998663;28;20030;-72
2023/11/08 05:17:16;;;;;;;8.98;5.53;;;;;;;4.25;66.21;100746.44;4994904;28;20045;-70
2023/11/08 05:19:42;;;;;;;7.90;5.22;;;;;;;4.73;64.24;100763.81;5006392;28;20089;-78
2023/11/08 05:22:11;;;;;;;11.45;6.90;;;;;;;4.32;65.64;100763.63;5007471;28;20452;-79
2023/11/08 05:24:37;;;;;;;10.70;5.70;;;;;;;4.69;64.96;100775.94;5014233;28;20069;-77
2023/11/08 05:27:04;;;;;;;12.98;6.47;;;;;;;4.54;65.68;100781.38;5003478;28;20280;-65
2023/11/08 05:29:31;;;;;;;10.18;5.47;;;;;;;4.34;66.73;100787.72;5000039;28;20033;-67
2023/11/08 05:31:57;;;;;;;9.07;5.50;;;;;;;4.54;65.66;100784.84;4998808;28;20076;-70
2023/11/08 05:34:25;;;;;;;14.80;6.07;;;;;;;4.17;66.87;100792.31;4993618;28;20041;-70
2023/11/08 05:36:51;;;;;;;9.10;6.32;;;;;;;4.92;65.28;100782.47;5003199;28;20057;-70
2023/11/08 05:39:22;;;;;;;13.05;5.88;;;;;;;4.67;66.07;100769.94;4989649;28;20128;-70
2023/11/08 05:41:48;;;;;;;10.55;5.88;;;;;;;4.71;65.90;100784.53;5003576;28;20044;-69
2023/11/08 05:44:15;;;;;;;12.13;6.22;;;;;;;4.95;64.72;100774.69;4996298;28;20152;-70
2023/11/08 05:46:41;;;;;;;13.35;6.18;;;;;;;5.02;65.03;100786.63;5004129;28;20036;-69
2023/11/08 05:49:08;;;;;;;10.95;6.53;;;;;;;4.84;65.42;100798.97;5001357;28;20612;-69
2023/11/08 05:51:34;;;;;;;11.40;6.47;;;;;;;4.48;66.99;100789.25;5003692;28;20038;-70
2023/11/08 05:54:00;;;;;;;13.68;6.22;;;;;;;4.72;65.98;100786.25;5009790;28;20044;-70
2023/11/08 05:56:26;;;;;;;11.30;7.03;;;;;;;4.84;65.46;100791.22;4997633;28;20080;-74
2023/11/08 05:58:51;;;;;;;14.07;6.68;;;;;;;4.47;66.18;100784.94;5008481;28;20061;-78
2023/11/08 06:01:19;;;;;;;15.35;6.38;;;;;;;4.67;65.13;100777.69;4995286;28;20041;-78
2023/11/08 06:03:45;;;;;;;10.20;5.60;;;;;;;4.81;64.87;100788.69;5000613;28;20041;-77
2023/11/08 06:06:11;;;;;;;9.00;5.78;;;;;;;4.90;65.13;100785.13;4995625;28;20095;-77
2023/11/08 06:08:36;;;;;;;11.30;4.95;;;;;;;4.97;64.23;100783.28;5013955;28;20061;-76
2023/11/08 06:11:06;;;;;;;9.30;3.92;;;;;;;4.84;64.51;100788.63;5010292;28;20039;-77
2023/11/08 06:13:35;;;;;;;8.07;3.90;;;;;;;4.96;64.17;100792.75;5000977;28;20645;-79
2023/11/08 06:16:01;;;;;;;7.43;4.18;;;;;;;4.91;64.07;100796.31;5001006;28;20739;-69
2023/11/08 06:18:27;;;;;;;8.52;3.67;;;;;;;5.19;62.79;100797.53;5001424;28;20179;-69
2023/11/08 06:20:53;;;;;;;6.93;4.10;;;;;;;4.66;64.86;100799.31;5010203;28;20037;-81
2023/11/08 06:23:18;;;;;;;8.10;4.18;;;;;;;4.80;64.74;100807.69;4994966;28;20140;-81
2023/11/08 06:25:44;;;;;;;10.30;4.60;;;;;;;4.84;64.51;100805.91;4997040;28;20098;-81
2023/11/08 06:28:13;;;;;;;8.57;5.47;;;;;;;4.56;65.18;100814.09;5014045;28;20475;-69
2023/11/08 06:30:39;;;;;;;9.98;5.72;;;;;;;4.79;64.88;100811.16;5004748;28;20044;-70
2023/11/08 06:33:07;;;;;;;12.93;5.13;;;;;;;4.51;65.34;100815.06;5001088;28;20042;-70
2023/11/08 06:35:32;;;;;;;7.45;4.60;;;;;;;4.59;65.59;100815.81;4996769;28;20069;-68
2023/11/08 06:37:58;;;;;;;9.82;4.72;;;;;;;4.50;65.88;100813.34;5000084;28;20128;-70
2023/11/08 06:40:24;;;;;;;8.18;5.22;;;;;;;4.47;66.06;100814.25;4998656;28;20097;-70
2023/11/08 06:42:50;;;;;;;10.82;4.82;;;;;;;4.75;65.32;100825.03;5014308;28;20061;-69
2023/11/08 06:45:16;;;;;;;7.80;5.45;;;;;;;4.71;65.42;100828.56;4997700;28;20400;-70
2023/11/08 06:47:42;;;;;;;11.85;4.78;;;;;;;4.74;65.38;100838.84;4997497;28;20061;-69
2023/11/08 06:50:10;;;;;;;11.20;5.53;;;;;;;4.87;65.04;100842.09;5001135;28;20038;-70
2023/11/08 06:52:37;;;;;;;6.88;4.35;;;;;;;5.11;64.56;100838.28;5004609;28;20034;-71
2023/11/08 06:55:06;;;;;;;13.90;6.28;;;;;;;4.90;65.15;100839.50;4991780;28;20182;-71
2023/11/08 06:57:32;;;;;;;13.43;6.57;;;;;;;4.94;65.52;100843.72;4976834;28;20113;-72
2023/11/08 06:59:59;;;;;;;12.75;6.40;;;;;;;4.69;66.32;100845.84;5004257;28;20125;-71
2023/11/08 07:02:27;;;;;;;16.63;7.15;;;;;;;4.63;66.31;100846.81;4996970;28;20047;-70
2023/11/08 07:04:52;;;;;;;9.85;5.32;;;;;;;5.17;64.59;100847.69;5003067;28;20104;-70
2023/11/08 07:07:18;;;;;;;15.13;6.80;;;;;;;4.93;65.84;100848.97;4998361;28;20616;-70
2023/11/08 07:09:44;;;;;;;11.50;6.70;;;;;;;4.94;65.77;100851.50;5007356;28;20091;-68
2023/11/08 07:12:10;;;;;;;9.68;6.38;;;;;;;4.72;66.73;100855.28;4996670;28;20037;-69
2023/11/08 07:14:36;;;;;;;15.07;7.57;;;;;;;4.77;66.76;100859.53;5007046;28;20164;-68
2023/11/08 07:17:03;;;;;;;14.40;7.28;;;;;;;5.17;65.65;100858.91;4998971;28;20044;-67
2023/11/08 07:19:29;;;;;;;13.13;7.43;;;;;;;4.58;67.27;100858.09;4997128;28;20527;-69
2023/11/08 07:21:55;;;;;;;15.35;6.97;;;;;;;4.97;66.02;100860.97;4999911;28;20476;-69
2023/11/08 07:24:22;;;;;;;18.08;8.32;;;;;;;4.97;65.64;100877.38;4996390;28;20080;-67
2023/11/08 07:26:51;;;;;;;15.20;7.55;;;;;;;4.88;65.87;100867.16;4991444;28;20037;-76
2023/11/08 07:29:17;;;;;;;16.45;7.75;;;;;;;5.03;65.52;100858.25;4999035;28;20128;-75
2023/11/08 07:31:43;;;;;;;21.55;8.93;;;;;;;4.94;65.77;100863.59;5009430;28;20068;-75
2023/11/08 07:34:09;;;;;;;15.43;7.35;;;;;;;4.72;66.42;100869.13;5006711;28;20084;-76
2023/11/08 07:36:35;;;;;;;18.05;9.13;;;;;;;4.70;66.71;100863.09;4998045;28;20065;-75
2023/11/08 07:39:01;;;;;;;15.63;8.38;;;;;;;4.95;65.95;100867.91;5004303;28;20053;-77
2023/11/08 07:41:30;;;;;;;15.10;7.95;;;;;;;5.11;65.52;100869.34;5000053;28;20037;-69
2023/11/08 07:43:57;;;;;;;21.98;8.07;;;;;;;4.77;65.86;100869.03;5007271;28;20050;-76
2023/11/08 07:46:25;;;;;;;15.98;8.20;;;;;;;4.96;66.19;100880.81;4983072;28;20187;-72
2023/11/08 07:48:55;;;;;;;16.70;8.25;;;;;;;4.57;66.56;100877.97;4991457;28;20042;-75
2023/11/08 07:51:22;;;;;;;17.95;7.45;;;;;;;5.15;65.55;100878.78;5000820;28;20416;-73
2023/11/08 07:53:49;;;;;;;14.18;8.77;;;;;;;4.82;66.18;100875.84;4999708;28;20142;-72
2023/11/08 07:56:15;;;;;;;14.20;8.18;;;;;;;5.22;65.90;100880.38;4995481;28;20584;-74
2023/11/08 07:58:41;;;;;;;19.42;8.05;;;;;;;5.19;65.54;100885.63;4999512;28;20045;-73
2023/11/08 08:01:06;;;;;;;14.30;7.50;;;;;;;5.78;64.66;100879.38;5007645;28;20051;-77
2023/11/08 08:03:32;;;;;;;23.00;9.02;;;;;;;6.22;62.80;100880.19;4993164;28;20390;-73
2023/11/08 08:05:57;;;;;;;18.17;8.43;;;;;;;5.73;63.10;100882.06;5019287;28;20765;-78
2023/11/08 08:08:23;;;;;;;19.63;7.75;;;;;;;5.57;64.10;100883.22;5010371;28;20107;-75
2023/11/08 08:10:49;;;;;;;16.58;8.50;;;;;;;5.72;63.20;100884.66;5025874;28;20034;-78
2023/11/08 08:13:15;;;;;;;19.15;8.05;;;;;;;5.91;63.39;100880.81;5009606;28;20038;-77
2023/11/08 08:15:41;;;;;;;20.52;8.10;;;;;;;5.40;64.46;100880.94;4998825;28;21139;-67
2023/11/08 08:18:07;;;;;;;21.58;9.52;;;;;;;5.85;63.89;100873.16;4995606;28;20048;-68
2023/11/08 08:20:33;;;;;;;18.92;9.38;;;;;;;6.12;62.65;100865.69;4994343;28;20040;-68
2023/11/08 08:22:58;;;;;;;18.88;8.45;;;;;;;6.05;62.63;100870.16;4996818;28;20038;-69
2023/11/08 08:25:23;;;;;;;22.95;9.48;;;;;;;5.50;63.78;100872.09;4996151;28;20087;-68
2023/11/08 08:27:49;;;;;;;15.13;8.65;;;;;;;5.13;65.00;100872.78;5005817;28;20642;-68
2023/11/08 08:30:15;;;;;;;20.58;9.60;;;;;;;5.56;64.20;100871.13;4998593;28;20190;-68
2023/11/08 08:32:42;;;;;;;19.55;9.10;;;;;;;6.18;62.64;100868.16;4998024;28;20045;-67
2023/11/08 08:35:08;;;;;;;13.15;8.35;;;;;;;6.08;62.92;100886.53;5001097;28;20041;-67
2023/11/08 08:37:33;;;;;;;14.00;8.07;;;;;;;5.66;63.58;100883.91;4993774;28;20049;-66
2023/11/08 08:40:05;;;;;;;14.57;9.27;;;;;;;5.43;64.72;100880.88;5001222;28;20029;-66
2023/11/08 08:42:30;;;;;;;19.80;9.30;;;;;;;5.40;64.67;100878.34;5001295;28;20094;-67
2023/11/08 08:44:56;;;;;;;13.40;8.38;;;;;;;5.83;63.49;100891.34;5004452;28;20446;-68
2023/11/08 08:47:21;;;;;;;13.95;8.23;;;;;;;5.53;63.85;100892.81;4991995;28;20049;-68
2023/11/08 08:49:48;;;;;;;28.45;9.55;;;;;;;5.60;64.04;100898.72;4999033;28;20028;-68
2023/11/08 08:52:13;;;;;;;17.60;8.50;;;;;;;5.59;64.35;100892.69;5000492;28;20060;-68
2023/11/08 08:54:39;;;;;;;22.38;9.20;;;;;;;6.08;62.93;100891.72;4995972;28;20041;-68
2023/11/08 08:57:05;;;;;;;20.33;8.10;;;;;;;6.22;62.75;100890.56;5000038;28;20033;-68
2023/11/08 08:59:31;;;;;;;15.48;8.73;;;;;;;6.12;62.59;100891.66;4992596;28;20111;-68
2023/11/08 09:01:57;;;;;;;16.25;8.43;;;;;;;6.41;61.89;100893.63;4996578;28;20037;-67
2023/11/08 09:04:23;;;;;;;18.40;8.30;;;;;;;6.94;60.94;100898.47;5000476;28;20087;-67
2023/11/08 09:06:49;;;;;;;12.25;7.20;;;;;;;6.75;60.50;100896.31;4998157;28;20112;-68
2023/11/08 09:09:14;;;;;;;12.50;7.03;;;;;;;5.74;62.80;100899.31;4998480;28;20048;-68
2023/11/08 09:11:40;;;;;;;14.02;7.88;;;;;;;6.25;62.71;100898.28;4996856;28;20032;-68
2023/11/08 09:14:09;;;;;;;16.45;7.00;;;;;;;6.67;60.88;100898.25;4999668;28;20041;-68
2023/11/08 09:16:37;;;;;;;17.63;7.38;;;;;;;6.37;61.69;100894.59;4998249;28;20071;-68
2023/11/08 09:19:05;;;;;;;18.73;7.30;;;;;;;5.88;62.85;100904.22;5001951;28;20181;-69
2023/11/08 09:21:31;;;;;;;16.20;7.47;;;;;;;5.86;62.86;100908.59;5004382;28;20049;-69
2023/11/08 09:23:59;;;;;;;14.60;6.88;;;;;;;6.30;61.73;100906.84;5001133;28;20131;-69
2023/11/08 09:26:24;;;;;;;14.15;7.38;;;;;;;6.44;61.59;100903.94;5006056;28;20037;-69
2023/11/08 09:28:50;;;;;;;17.67;7.13;;;;;;;6.18;61.65;100907.09;4994927;28;20718;-68
2023/11/08 09:31:16;;;;;;;24.50;8.02;;;;;;;6.03;62.55;100906.50;5003631;28;20050;-68
2023/11/08 09:33:42;;;;;;;16.77;9.30;;;;;;;5.76;62.70;100922.63;4999764;28;20478;-68
2023/11/08 09:36:08;;;;;;;18.95;8.23;;;;;;;6.11;62.44;100916.75;5003481;28;20037;-68
2023/11/08 09:38:33;;;;;;;14.55;7.38;;;;;;;5.49;63.62;100917.06;4998308;28;20042;-69
2023/11/08 09:40:59;;;;;;;12.20;7.38;;;;;;;5.97;63.10;100919.63;5003468;28;20045;-69
2023/11/08 09:43:28;;;;;;;12.00;7.68;;;;;;;5.64;63.67;100905.56;4998641;28;20052;-68
2023/11/08 09:45:55;;;;;;;12.63;7.32;;;;;;;5.97;63.19;100903.19;5001487;28;20499;-69
2023/11/08 09:48:21;;;;;;;13.38;7.78;;;;;;;6.38;61.49;100899.75;4999188;28;20606;-69
2023/11/08 09:50:47;;;;;;;14.98;8.10;;;;;;;6.09;62.41;100911.56;4997047;28;20033;-67
2023/11/08 09:53:13;;;;;;;16.30;7.22;;;;;;;5.78;63.58;100913.09;5000263;28;20478;-67
2023/11/08 09:55:39;;;;;;;16.13;7.35;;;;;;;5.75;63.08;100907.94;4993844;28;20145;-68
2023/11/08 09:58:09;;;;;;;12.07;7.38;;;;;;;6.31;61.58;100908.56;4978963;28;20048;-68
2023/11/08 10:00:36;;;;;;;20.17;7.70;;;;;;;6.22;62.14;100911.34;4991809;28;20029;-68
2023/11/08 10:03:04;;;;;;;14.95;7.47;;;;;;;7.02;59.82;100909.53;4999094;28;20056;-67
2023/11/08 10:05:34;;;;;;;13.05;8.77;;;;;;;6.99;59.53;100909.59;4993155;28;20143;-68
2023/11/08 10:08:08;;;;;;;16.85;7.15;;;;;;;7.49;58.33;100910.94;4996455;28;20041;-68
2023/11/08 10:10:33;;;;;;;12.63;6.53;;;;;;;7.25;58.44;100907.22;5001948;28;20041;-67
2023/11/08 10:13:06;;;;;;;12.18;6.45;;;;;;;6.90;60.13;100903.72;5007441;28;20038;-67
2023/11/08 10:15:33;;;;;;;13.90;6.90;;;;;;;7.19;58.90;100904.75;4995812;28;20104;-68
2023/11/08 10:17:59;;;;;;;12.90;7.10;;;;;;;7.35;59.22;100899.16;5001615;28;20055;-67
2023/11/08 10:20:30;;;;;;;10.20;6.40;;;;;;;7.65;58.17;100893.19;4996291;28;20685;-67
2023/11/08 10:22:55;;;;;;;11.80;6.78;;;;;;;6.95;59.81;100897.56;4996864;28;20051;-67
2023/11/08 10:25:25;;;;;;;18.30;7.80;;;;;;;7.61;58.36;100895.91;4997808;28;20041;-67
2023/11/08 10:28:07;;;;;;;14.05;6.57;;;;;;;7.47;58.47;100894.50;5005100;28;20042;-68
2023/11/08 10:30:37;;;;;;;8.52;6.35;;;;;;;7.46;58.18;100887.59;4998036;28;20045;-68
2023/11/08 10:33:10;;;;;;;11.70;6.05;;;;;;;7.93;57.29;100892.41;5002041;28;20429;-67
2023/11/08 10:35:39;;;;;;;17.67;8.23;;;;;;;8.02;57.26;100896.50;4994772;28;20593;-67
2023/11/08 10:38:05;;;;;;;9.75;6.45;;;;;;;8.23;56.31;100884.63;5000100;28;20038;-68
2023/11/08 10:40:32;;;;;;;12.15;6.10;;;;;;;7.45;57.92;100890.25;4997438;28;20052;-67
2023/11/08 10:42:58;;;;;;;14.10;6.68;;;;;;;7.88;57.03;100878.69;4999303;28;20515;-68
2023/11/08 10:45:26;;;;;;;13.32;5.68;;;;;;;8.03;56.34;100885.19;4999694;28;20042;-67
2023/11/08 10:47:52;;;;;;;6.93;5.05;;;;;;;8.32;55.21;100893.00;4999042;28;20096;-69
2023/11/08 10:50:18;;;;;;;13.63;5.68;;;;;;;8.24;56.46;100881.94;4998734;28;20053;-69
2023/11/08 10:52:47;;;;;;;10.57;5.13;;;;;;;9.21;54.05;100880.63;4995702;28;20053;-69
2023/11/08 10:55:13;;;;;;;14.90;5.55;;;;;;;8.42;54.34;100879.69;4998016;28;20045;-69
2023/11/08 10:57:53;;;;;;;20.45;5.05;;;;;;;8.96;53.44;100877.13;4995174;28;20041;-68
2023/11/08 11:00:22;;;;;;;7.53;4.28;;;;;;;8.79;53.63;100870.75;5001227;28;20413;-69
2023/11/08 11:03:00;;;;;;;22.70;5.47;;;;;;;7.60;55.51;100879.47;5002689;28;20040;-68
2023/11/08 11:05:30;;;;;;;12.50;4.25;;;;;;;8.69;54.90;100875.34;4998276;28;20112;-67
2023/11/08 11:07:59;;;;;;;10.57;5.00;;;;;;;8.92;53.88;100874.66;4998356;28;20314;-67
2023/11/08 11:10:25;;;;;;;10.38;4.53;;;;;;;9.44;52.39;100861.59;4998244;28;20046;-68
2023/11/08 11:13:11;;;;;;;6.70;3.97;;;;;;;8.63;54.19;100872.94;4996665;28;20042;-67
2023/11/08 11:16:05;;;;;;;6.07;3.90;;;;;;;8.89;53.64;100869.53;4996589;28;20112;-69
2023/11/08 11:18:41;;;;;;;8.27;4.25;;;;;;;8.51;54.14;100867.22;4997091;28;20554;-69
2023/11/08 11:21:19;;;;;;;7.25;4.80;;;;;;;8.23;54.87;100869.84;5000700;28;20155;-69
2023/11/08 11:23:51;;;;;;;5.95;4.68;;;;;;;7.91;55.05;100862.97;5009472;28;20038;-69
2023/11/08 11:26:42;;;;;;;8.00;5.00;;;;;;;8.85;53.72;100874.00;5002640;28;20029;-68
2023/11/08 11:29:15;;;;;;;9.50;3.78;;;;;;;7.81;55.34;100869.34;5004000;28;20037;-68